Overview Statistics Trail Chart Weather Telemetry Raw packets
 

This is the latest recevied weather packets stored in our database for station/object KD5GAT-51. If no packets are shown the sender has not sent any weather packets the latest 10 day(s).

<< 1 2 3 4 >>
Time Temp. Humidity Pressure Rain* Wind** Luminosity Snow
1788499700 27.78° C 100% 1015.5 hPa - - - -
1788498800 27.78° C 100% 1015.4 hPa - - - -
1788497900 27.78° C 100% 1015.2 hPa - - - -
1788497000 27.78° C 100% 1015.1 hPa - - - -
1788496099 28.33° C 100% 1015 hPa - - - -
1788495199 28.89° C 100% 1014.8 hPa - - - -
1788494299 28.89° C 100% 1014.8 hPa - - - -
1788493399 29.44° C 100% 1015 hPa - - - -
1788492499 30° C 100% 1014.7 hPa - - - -
1788491599 30° C 100% 1014.5 hPa - - - -
1788490698 30.56° C 100% 1014.3 hPa - - - -
1788489798 31.11° C 100% 1013.9 hPa - - - -
1788488898 31.11° C 99% 1013.6 hPa - - - -
1788487998 31.11° C 100% 1013.4 hPa - - - -
1788487098 31.11° C 100% 1013.2 hPa - - - -
1788486198 31.11° C 100% 1013 hPa - - - -
1788485297 31.11° C 100% 1012.9 hPa - - - -
1788484397 31.67° C 100% 1012.6 hPa - - - -
1788483497 32.22° C 96% 1012.5 hPa - - - -
1788482597 33.89° C 80% 1012.2 hPa - - - -
1788481697 35.56° C 55% 1012 hPa - - - -
1788480797 37.78° C 42% 1011.7 hPa - - - -
1788479896 38.89° C 36% 1011.3 hPa - - - -
1788478996 38.89° C 36% 1011.3 hPa - - - -
1788478096 39.44° C 35% 1011.3 hPa - - - -

* Rain since midnight (hover to see other rain measurements)
** Current wind speed in m/s (hover to see current wind gust speed)